CheckWX is a tool to help pilots better visualize weather data.  It is not intended as a substitute for an official pre-flight weather briefing.

13:37:26 UTC

KAIB METAR
Hopkins Field Airport
Nucla, Colorado, USA
Current

22 mins ago

KAIB 191315Z AUTO 09009KT 10SM SCT095 15/01 A3013 RMK AO2
Observed
Sep-19 @ 13:15 UTC
Wind
  • 090° at 9 KTS
Visibility
10 SM
Flight Rules
VFR
Cloud Levels
  • Scattered at 9,500' AGL
Temperature
15°C / 59°F
Dewpoint
C / 34°F
Humidity
39%
Altimeter
30.13" Hg
Pressure
1020.32 hPa
Previous

42 mins ago

KAIB 191255Z AUTO 09009KT 10SM SCT095 15/01 A3012 RMK AO2
Observed
Sep-19 @ 12:55 UTC
Wind
  • 090° at 9 KTS
Visibility
10 SM
Flight Rules
VFR
Cloud Levels
  • Scattered at 9,500' AGL
Temperature
15°C / 59°F
Dewpoint
C / 34°F
Humidity
39%
Altimeter
30.12" Hg
Pressure
1020.02 hPa
Previous

1 hour ago

KAIB 191235Z AUTO 09009KT 10SM SCT095 15/01 A3012 RMK AO2
Observed
Sep-19 @ 12:35 UTC
Wind
  • 090° at 9 KTS
Visibility
10 SM
Flight Rules
VFR
Cloud Levels
  • Scattered at 9,500' AGL
Temperature
15°C / 59°F
Dewpoint
C / 34°F
Humidity
39%
Altimeter
30.12" Hg
Pressure
1020.02 hPa